Flugplatz Porta Westfalica

Für EDVY sind keine METAR/TAF Berichte vorhanden.
Es werden die Flugwettermeldungen vom Flugplatz Buckeburg Airport in 16 km Entfernung angezeigt.

Bericht für ETHB

vom 25.09. um 17:20 UTC

Wind 3 kt aus 180°

Sichtweite 10 km oder mehr

Temperatur 13.0°C

Taupunkt 5.0°C

Luftfeuchtigkeit 58%

Luftdruck 996 hPa

ETHB 251720Z AUTO 18003KT 9999 // ////// 13/05 Q0996 ///
Keine Prognose (TAF) verfügbar.
Impressum